Accueil
METAR-TAF:

METAR-TAF

Aéroports :

Aérodrome de Melun-Villaroche

Melun, France

latitude: 48-37N, longitude: 002-41E, altitude: 95 m

Observation

Le bulletin a été fait il y a 37 minutes, à 10:30 UTC
Vent 14 kt de ouest/nord-ouest
Température 9°C
Humidité 87%
Pression 1014 hPa
Visibilité 10 km ou plus
pluie faible,

METAR: LFPM 161030Z AUTO 29014KT 9999 -RA FEW015/// SCT023/// BKN033/// //////CB 09/07 Q1014

Heure: 13:07 (11:07 UTC)


TAF: absent

Observations et prévisions météorologiques de plus de 4000 aéroports (messages METAR et TAF).

Les stations disponibles sont représentées par des disques jaunes et rouges sur la carte.

Passer la souris dessus pour voir le nom de la station.

Cliquer dessus pour voir les observations et prévisions météorologiques.

Pour changer de carte: cliquez sur les boutons verts avec une croix noire pour zoomer, sur le bouton vert avec un tiret pour effectuer un zoom arrière, ou sur les flèches vertes pour les cartes adjacentes.


METAR-TAF: